Time;durP1;ratioP1;P1;durP2;ratioP2;P2;SDS_P1;SDS_P2;PMS_P1;PMS_P2;Temp;Humidity;BMP_temperature;BMP_pressure;BME280_temperature;BME280_humidity;BME280_pressure;Samples;Min_cycle;Max_cycle;Signal;HPM_P1;HPM_P2
2022/07/19 00:00:46;;;;;;;1.20;0.50;;;22.80;54.40;;;;;;5017974;28;20045;-77
2022/07/19 00:03:16;;;;;;;1.15;0.50;;;22.70;54.40;;;;;;5017867;28;20049;-77
2022/07/19 00:05:44;;;;;;;0.82;0.40;;;22.70;54.60;;;;;;5009317;28;20081;-77
2022/07/19 00:08:11;;;;;;;1.25;0.50;;;22.70;54.70;;;;;;5025431;28;20037;-76
2022/07/19 00:10:38;;;;;;;1.08;0.40;;;22.60;54.80;;;;;;5017139;28;20049;-77
2022/07/19 00:13:05;;;;;;;1.83;0.70;;;22.60;55.00;;;;;;5017224;28;20551;-77
2022/07/19 00:15:32;;;;;;;1.38;0.52;;;22.60;55.10;;;;;;5021615;28;20064;-77
2022/07/19 00:17:59;;;;;;;1.33;0.60;;;22.50;55.20;;;;;;5001021;28;20132;-77
2022/07/19 00:20:26;;;;;;;1.08;0.60;;;22.50;55.30;;;;;;5020973;28;20033;-77
2022/07/19 00:22:54;;;;;;;1.10;0.60;;;22.50;55.40;;;;;;5016866;28;20490;-76
2022/07/19 00:25:21;;;;;;;2.58;0.57;;;22.40;55.40;;;;;;5016541;28;20041;-77
2022/07/19 00:27:47;;;;;;;1.08;0.45;;;22.40;56.00;;;;;;5007605;28;20068;-76
2022/07/19 00:30:15;;;;;;;1.50;0.60;;;22.40;55.50;;;;;;5018842;28;20140;-76
2022/07/19 00:32:42;;;;;;;1.10;0.40;;;22.30;56.20;;;;;;5031614;28;20453;-77
2022/07/19 00:35:09;;;;;;;1.98;0.65;;;22.30;55.80;;;;;;5008828;28;20045;-77
2022/07/19 00:37:36;;;;;;;1.50;0.63;;;22.30;55.90;;;;;;5001834;28;20096;-77
2022/07/19 00:40:13;;;;;;;2.42;0.70;;;22.20;55.90;;;;;;5008301;28;20104;-77
2022/07/19 00:42:40;;;;;;;1.35;0.60;;;22.20;55.90;;;;;;5016139;28;20034;-77
2022/07/19 00:45:08;;;;;;;1.63;0.65;;;22.20;56.00;;;;;;5040190;28;20523;-76
2022/07/19 00:47:35;;;;;;;0.98;0.47;;;22.10;56.10;;;;;;5016742;28;20091;-77
2022/07/19 00:50:03;;;;;;;1.55;0.70;;;22.10;56.10;;;;;;5049237;28;20822;-77
2022/07/19 00:52:32;;;;;;;1.20;0.55;;;22.10;56.30;;;;;;5052854;28;20455;-77
2022/07/19 00:55:00;;;;;;;1.27;0.45;;;22.10;56.40;;;;;;5050293;28;20042;-77
2022/07/19 00:57:31;;;;;;;0.80;0.40;;;22.00;56.40;;;;;;5019191;28;20041;-77
2022/07/19 00:59:58;;;;;;;1.38;0.57;;;22.00;56.50;;;;;;5041353;28;20045;-77
2022/07/19 01:02:25;;;;;;;1.17;0.50;;;22.00;56.60;;;;;;5034440;28;20148;-77
2022/07/19 01:04:52;;;;;;;1.15;0.50;;;21.90;56.70;;;;;;5026982;28;20048;-77
2022/07/19 01:07:23;;;;;;;3.08;0.57;;;21.90;56.80;;;;;;5020664;28;20037;-77
2022/07/19 01:09:51;;;;;;;1.10;0.60;;;21.80;56.90;;;;;;5053025;28;20084;-76
2022/07/19 01:12:19;;;;;;;1.63;0.57;;;21.80;57.00;;;;;;5051266;28;20087;-77
2022/07/19 01:14:46;;;;;;;1.30;0.50;;;21.80;57.10;;;;;;5047073;28;20402;-77
2022/07/19 01:17:13;;;;;;;1.15;0.50;;;21.70;57.20;;;;;;5019712;28;20405;-77
2022/07/19 01:19:44;;;;;;;1.05;0.50;;;21.70;57.30;;;;;;5035608;28;20107;-76
2022/07/19 01:22:10;;;;;;;1.25;0.60;;;21.70;57.40;;;;;;5018908;28;20144;-77
2022/07/19 01:24:38;;;;;;;1.92;0.60;;;21.60;57.50;;;;;;5015629;28;20042;-76
2022/07/19 01:27:05;;;;;;;1.67;0.50;;;21.70;57.60;;;;;;5018986;28;20033;-77
2022/07/19 01:29:38;;;;;;;1.88;0.63;;;21.60;57.70;;;;;;5051188;28;20037;-77
2022/07/19 01:32:06;;;;;;;1.85;0.47;;;21.60;57.80;;;;;;5049717;28;20259;-77
2022/07/19 01:34:33;;;;;;;1.23;0.63;;;21.60;57.80;;;;;;5050472;28;20037;-77
2022/07/19 01:37:00;;;;;;;1.30;0.63;;;21.60;57.90;;;;;;5044125;28;20655;-77
2022/07/19 01:39:27;;;;;;;1.55;0.60;;;21.50;58.00;;;;;;5049870;28;20120;-77
2022/07/19 01:41:53;;;;;;;1.30;0.52;;;21.50;58.10;;;;;;5036007;28;20033;-84
2022/07/19 01:44:20;;;;;;;2.65;0.55;;;21.50;58.20;;;;;;5018603;28;20045;-85
2022/07/19 01:46:47;;;;;;;1.52;0.57;;;21.50;58.20;;;;;;5027103;28;20036;-84
2022/07/19 01:49:14;;;;;;;1.75;0.85;;;21.50;58.40;;;;;;5049438;28;20106;-85
2022/07/19 01:51:41;;;;;;;1.30;0.57;;;21.40;58.40;;;;;;5052360;28;20043;-85
2022/07/19 01:54:08;;;;;;;1.50;0.63;;;21.40;58.50;;;;;;5031026;28;20044;-84
2022/07/19 01:56:35;;;;;;;1.20;0.50;;;21.40;58.80;;;;;;5015403;28;20054;-84
2022/07/19 01:59:02;;;;;;;1.98;0.70;;;21.40;58.90;;;;;;5022998;28;20052;-85
2022/07/19 02:01:29;;;;;;;1.20;0.60;;;21.40;59.00;;;;;;5039697;28;20053;-84
2022/07/19 02:03:56;;;;;;;1.15;0.50;;;21.40;59.10;;;;;;5027182;28;20055;-84
2022/07/19 02:06:23;;;;;;;1.40;0.50;;;21.30;59.10;;;;;;5024379;28;20106;-84
2022/07/19 02:08:50;;;;;;;1.15;0.60;;;21.30;59.20;;;;;;5028492;28;20076;-84
2022/07/19 02:11:35;;;;;;;1.58;0.65;;;21.30;59.30;;;;;;5021842;28;20048;-84
2022/07/19 02:14:07;;;;;;;1.58;0.60;;;21.30;59.50;;;;;;5045129;28;20067;-84
2022/07/19 02:16:36;;;;;;;1.08;0.52;;;21.20;59.50;;;;;;5041293;28;20047;-84
2022/07/19 02:19:04;;;;;;;1.77;0.55;;;21.20;59.60;;;;;;5026743;28;20086;-84
2022/07/19 02:21:33;;;;;;;1.75;0.65;;;21.20;59.70;;;;;;5027467;28;20048;-77
2022/07/19 02:24:00;;;;;;;2.83;0.73;;;21.10;59.80;;;;;;5053442;28;20072;-77
2022/07/19 02:26:27;;;;;;;1.67;0.50;;;21.10;59.90;;;;;;5037950;28;20053;-76
2022/07/19 02:28:59;;;;;;;1.83;0.88;;;21.10;60.00;;;;;;5057572;28;20127;-76
2022/07/19 02:31:26;;;;;;;1.67;0.70;;;21.10;60.20;;;;;;5038074;28;20052;-77
2022/07/19 02:33:53;;;;;;;1.02;0.50;;;21.00;60.30;;;;;;5037486;28;20044;-77
2022/07/19 02:36:20;;;;;;;1.35;0.50;;;21.00;60.30;;;;;;5036930;28;20040;-77
2022/07/19 02:38:49;;;;;;;2.22;0.68;;;21.00;60.40;;;;;;5033957;28;20041;-76
2022/07/19 02:41:17;;;;;;;1.25;0.52;;;21.00;60.50;;;;;;5036477;28;20048;-77
2022/07/19 02:43:44;;;;;;;1.23;0.70;;;20.90;60.60;;;;;;5037602;28;20051;-76
2022/07/19 02:46:11;;;;;;;3.08;0.50;;;20.90;60.70;;;;;;5037566;28;20205;-77
2022/07/19 02:48:38;;;;;;;2.17;0.50;;;20.80;60.70;;;;;;5071531;28;20055;-77
2022/07/19 02:51:10;;;;;;;1.10;0.50;;;20.80;60.80;;;;;;5010596;28;20052;-77
2022/07/19 02:53:38;;;;;;;1.10;0.50;;;20.80;60.90;;;;;;5053063;28;20106;-76
2022/07/19 02:56:05;;;;;;;1.42;0.50;;;20.80;61.10;;;;;;5053803;28;20032;-77
2022/07/19 02:58:32;;;;;;;1.85;0.63;;;20.70;61.10;;;;;;5052893;28;20075;-76
2022/07/19 03:00:59;;;;;;;1.65;0.77;;;20.70;61.20;;;;;;5038081;28;20455;-76
2022/07/19 03:03:44;;;;;;;1.38;0.80;;;20.70;61.40;;;;;;5037287;28;20091;-76
2022/07/19 03:06:13;;;;;;;1.20;0.60;;;20.70;61.50;;;;;;5012622;28;20067;-77
2022/07/19 03:08:43;;;;;;;1.57;0.60;;;20.60;61.60;;;;;;5050172;28;20053;-77
2022/07/19 03:11:11;;;;;;;1.42;0.60;;;20.60;61.70;;;;;;5047635;28;20755;-77
2022/07/19 03:13:38;;;;;;;1.33;0.60;;;20.60;61.70;;;;;;5020824;28;20087;-76
2022/07/19 03:16:05;;;;;;;2.38;0.77;;;20.60;61.80;;;;;;5054077;28;20045;-77
2022/07/19 03:18:32;;;;;;;1.27;0.55;;;20.50;61.90;;;;;;5051362;28;20752;-76
2022/07/19 03:21:00;;;;;;;1.33;0.47;;;20.50;62.00;;;;;;5046389;28;20041;-77
2022/07/19 03:23:35;;;;;;;1.90;0.68;;;20.50;62.20;;;;;;5041211;28;20561;-76
2022/07/19 03:26:03;;;;;;;1.58;0.70;;;20.50;62.20;;;;;;5057954;28;20491;-77
2022/07/19 03:28:30;;;;;;;1.42;0.70;;;20.40;62.20;;;;;;5041166;28;20480;-77
2022/07/19 03:30:57;;;;;;;1.77;0.60;;;20.40;62.30;;;;;;5038826;28;20045;-77
2022/07/19 03:33:24;;;;;;;3.50;0.70;;;20.40;62.30;;;;;;5039412;28;20099;-77
2022/07/19 03:35:51;;;;;;;3.33;0.60;;;20.40;62.40;;;;;;5036835;28;20040;-76
2022/07/19 03:38:18;;;;;;;1.48;0.60;;;20.30;62.50;;;;;;5040517;28;20056;-77
2022/07/19 03:40:47;;;;;;;1.27;0.60;;;20.30;62.50;;;;;;5037433;28;20051;-76
2022/07/19 03:43:16;;;;;;;1.08;0.57;;;20.30;62.60;;;;;;5057174;28;20049;-76
2022/07/19 03:45:45;;;;;;;1.92;0.70;;;20.30;62.60;;;;;;5036870;28;20053;-75
2022/07/19 03:48:12;;;;;;;1.05;0.50;;;20.30;62.70;;;;;;5077982;28;20071;-77
2022/07/19 03:50:42;;;;;;;1.38;0.60;;;20.30;62.70;;;;;;5057534;28;20048;-77
2022/07/19 03:53:09;;;;;;;1.00;0.57;;;20.30;62.80;;;;;;5036753;28;20049;-76
2022/07/19 03:55:36;;;;;;;1.58;0.70;;;20.30;62.80;;;;;;5027393;28;20500;-77
2022/07/19 03:58:03;;;;;;;1.77;0.65;;;20.30;62.80;;;;;;5055907;28;20110;-78
2022/07/19 04:00:31;;;;;;;1.70;0.70;;;20.30;62.90;;;;;;5055416;28;20044;-78
2022/07/19 04:02:58;;;;;;;2.30;0.68;;;20.30;62.90;;;;;;5050591;28;20068;-78
2022/07/19 04:05:28;;;;;;;1.73;0.60;;;20.30;63.00;;;;;;5046676;28;20045;-78
2022/07/19 04:07:55;;;;;;;2.03;0.60;;;20.30;63.10;;;;;;5039970;28;20037;-78
2022/07/19 04:10:22;;;;;;;1.13;0.60;;;20.30;63.10;;;;;;5021507;28;20404;-78
2022/07/19 04:12:49;;;;;;;1.50;0.70;;;20.30;63.20;;;;;;5042424;28;20098;-78
2022/07/19 04:15:16;;;;;;;1.88;0.60;;;20.30;63.30;;;;;;5044651;28;20471;-79
2022/07/19 04:17:43;;;;;;;1.95;0.50;;;20.30;63.30;;;;;;5055071;28;20044;-78
2022/07/19 04:20:11;;;;;;;1.90;0.70;;;20.30;63.30;;;;;;5038992;28;20048;-78
2022/07/19 04:22:38;;;;;;;2.92;0.60;;;20.30;63.30;;;;;;5024133;28;20036;-78
2022/07/19 04:25:05;;;;;;;0.95;0.60;;;20.30;63.30;;;;;;5040481;28;20048;-79
2022/07/19 04:27:32;;;;;;;1.08;0.50;;;20.40;63.30;;;;;;5060016;28;20081;-79
2022/07/19 04:29:59;;;;;;;0.85;0.45;;;20.40;63.40;;;;;;5034212;28;20121;-77
2022/07/19 04:32:28;;;;;;;1.33;0.50;;;20.40;63.50;;;;;;5040133;28;20040;-79
2022/07/19 04:34:56;;;;;;;2.53;0.55;;;20.40;63.50;;;;;;5057488;28;20063;-80
2022/07/19 04:37:23;;;;;;;2.22;0.70;;;20.40;63.50;;;;;;5039764;28;20048;-78
2022/07/19 04:39:50;;;;;;;2.10;0.50;;;20.40;63.50;;;;;;5043716;28;20044;-79
2022/07/19 04:42:17;;;;;;;1.42;0.70;;;20.50;63.40;;;;;;5052410;28;20044;-79
2022/07/19 04:44:44;;;;;;;2.00;0.60;;;20.50;63.40;;;;;;5023224;28;20139;-79
2022/07/19 04:47:11;;;;;;;2.90;0.60;;;20.50;64.00;;;;;;5033031;28;20081;-76
2022/07/19 04:49:38;;;;;;;1.25;0.50;;;20.50;63.40;;;;;;5007041;28;20090;-76
2022/07/19 04:52:05;;;;;;;1.00;0.50;;;20.50;63.30;;;;;;5036181;28;20037;-78
2022/07/19 04:54:32;;;;;;;1.58;0.60;;;20.60;63.20;;;;;;5037415;28;20060;-80
2022/07/19 04:57:00;;;;;;;1.58;0.60;;;20.60;63.20;;;;;;5072758;28;20086;-76
2022/07/19 04:59:26;;;;;;;1.23;0.55;;;20.60;63.10;;;;;;5040056;28;20451;-78
2022/07/19 05:01:54;;;;;;;1.15;0.60;;;20.70;63.10;;;;;;5039651;28;20048;-77
2022/07/19 05:04:22;;;;;;;2.40;0.65;;;20.70;63.10;;;;;;5064991;28;20051;-80
2022/07/19 05:06:51;;;;;;;1.48;0.40;;;20.80;63.00;;;;;;5028566;28;20088;-78
2022/07/19 05:09:18;;;;;;;2.08;0.50;;;20.90;63.60;;;;;;5004422;28;20501;-77
2022/07/19 05:11:45;;;;;;;1.13;0.50;;;20.90;62.60;;;;;;5055555;28;20063;-77
2022/07/19 05:14:12;;;;;;;3.15;0.40;;;21.00;62.40;;;;;;5022751;28;20068;-77
2022/07/19 05:16:39;;;;;;;0.80;0.35;;;21.10;62.00;;;;;;5035728;28;20045;-78
2022/07/19 05:19:06;;;;;;;0.88;0.30;;;21.30;61.80;;;;;;5053433;28;20068;-77
2022/07/19 05:21:36;;;;;;;1.42;0.50;;;21.40;61.50;;;;;;5022833;28;20059;-77
2022/07/19 05:24:04;;;;;;;1.15;0.50;;;21.50;61.30;;;;;;5022819;28;20149;-77
2022/07/19 05:26:31;;;;;;;0.98;0.30;;;21.60;61.30;;;;;;5039436;28;20041;-76
2022/07/19 05:28:58;;;;;;;1.70;0.45;;;21.60;61.20;;;;;;5039527;28;20048;-77
2022/07/19 05:31:25;;;;;;;1.27;0.47;;;21.70;61.10;;;;;;5035531;28;20048;-75
2022/07/19 05:33:52;;;;;;;1.27;0.50;;;21.80;61.00;;;;;;5038910;28;20108;-76
2022/07/19 05:36:19;;;;;;;1.33;0.40;;;21.80;60.70;;;;;;5038551;28;20496;-77
2022/07/19 05:38:47;;;;;;;1.05;0.50;;;22.00;60.40;;;;;;5025643;28;20049;-76
2022/07/19 05:41:17;;;;;;;1.08;0.50;;;22.10;59.90;;;;;;5053283;28;20105;-75
2022/07/19 05:43:50;;;;;;;2.30;0.40;;;22.20;59.40;;;;;;5038531;28;20040;-76
2022/07/19 05:46:17;;;;;;;1.35;0.52;;;22.30;59.10;;;;;;5048434;28;20247;-77
2022/07/19 05:48:44;;;;;;;1.23;0.35;;;22.50;58.80;;;;;;5036431;28;20067;-77
2022/07/19 05:51:15;;;;;;;1.05;0.50;;;22.60;58.40;;;;;;5036675;28;20140;-76
2022/07/19 05:53:42;;;;;;;1.48;0.60;;;22.80;58.00;;;;;;5051373;28;20048;-76
2022/07/19 05:56:09;;;;;;;1.70;0.45;;;22.90;57.70;;;;;;5046928;28;20036;-77
2022/07/19 05:58:36;;;;;;;1.80;0.47;;;23.10;57.50;;;;;;5042362;28;20048;-76
2022/07/19 06:01:21;;;;;;;1.80;0.60;;;23.20;57.20;;;;;;5037560;28;20068;-76
2022/07/19 06:03:51;;;;;;;1.30;0.43;;;23.30;57.00;;;;;;5055145;28;20084;-77
2022/07/19 06:06:27;;;;;;;1.33;0.50;;;23.40;56.80;;;;;;5039754;28;20044;-77
2022/07/19 06:08:54;;;;;;;0.90;0.47;;;23.50;56.60;;;;;;5062951;28;20028;-76
2022/07/19 06:11:22;;;;;;;1.50;0.73;;;23.70;57.10;;;;;;5037471;28;20052;-77
2022/07/19 06:13:50;;;;;;;1.02;0.40;;;23.80;56.30;;;;;;5054279;28;20071;-76
2022/07/19 06:16:18;;;;;;;2.30;0.50;;;23.90;56.10;;;;;;5034826;28;20037;-76
2022/07/19 06:18:46;;;;;;;2.05;0.60;;;24.00;55.90;;;;;;5053953;28;20040;-76
2022/07/19 06:21:17;;;;;;;2.10;0.63;;;24.10;55.70;;;;;;5054885;28;20521;-76
2022/07/19 06:23:45;;;;;;;1.92;0.73;;;24.20;55.50;;;;;;5038401;28;20423;-76
2022/07/19 06:26:12;;;;;;;1.27;0.50;;;24.30;55.20;;;;;;5053470;28;20446;-76
2022/07/19 06:28:40;;;;;;;1.52;0.55;;;24.40;55.10;;;;;;5032459;28;20493;-76
2022/07/19 06:31:11;;;;;;;1.45;0.57;;;24.50;55.00;;;;;;5070944;28;20056;-76
2022/07/19 06:33:40;;;;;;;1.38;0.63;;;24.60;54.80;;;;;;5043375;28;20124;-76
2022/07/19 06:36:08;;;;;;;1.25;0.60;;;24.70;54.70;;;;;;5072488;28;20131;-76
2022/07/19 06:38:35;;;;;;;1.42;0.60;;;24.80;54.50;;;;;;5034522;28;20408;-76
2022/07/19 06:41:02;;;;;;;1.80;0.70;;;24.90;54.30;;;;;;5037619;28;20052;-76
2022/07/19 06:43:29;;;;;;;1.73;1.00;;;25.00;54.20;;;;;;5037202;28;20079;-76
2022/07/19 06:45:57;;;;;;;1.52;0.63;;;25.00;54.00;;;;;;5055648;28;20049;-75
2022/07/19 06:48:24;;;;;;;1.90;0.70;;;25.20;53.90;;;;;;5042475;28;20084;-76
2022/07/19 06:50:51;;;;;;;1.67;0.80;;;25.20;53.70;;;;;;5043144;28;20039;-76
2022/07/19 06:53:20;;;;;;;1.80;0.88;;;25.30;53.60;;;;;;5052258;28;20033;-76
2022/07/19 06:55:50;;;;;;;2.25;0.80;;;25.40;53.40;;;;;;5039462;28;20036;-75
2022/07/19 06:58:17;;;;;;;2.03;1.10;;;25.50;53.20;;;;;;5058127;28;20105;-75
2022/07/19 07:00:48;;;;;;;2.72;0.93;;;25.60;53.10;;;;;;5041662;28;20037;-76
2022/07/19 07:03:17;;;;;;;1.38;0.70;;;25.70;53.00;;;;;;5038814;28;20087;-75
2022/07/19 07:05:45;;;;;;;1.35;0.70;;;25.80;52.80;;;;;;5052246;28;20041;-76
2022/07/19 07:08:12;;;;;;;2.63;0.70;;;25.90;52.60;;;;;;5060703;28;20067;-76
2022/07/19 07:10:41;;;;;;;2.25;0.60;;;26.00;52.50;;;;;;5042586;28;20050;-76
2022/07/19 07:13:08;;;;;;;1.60;0.90;;;26.10;52.30;;;;;;5022118;28;20099;-81
2022/07/19 07:15:38;;;;;;;1.58;0.75;;;26.10;52.20;;;;;;5038824;28;20078;-81
2022/07/19 07:18:05;;;;;;;1.83;0.68;;;26.30;52.10;;;;;;5023150;28;20493;-82
2022/07/19 07:20:34;;;;;;;1.60;0.60;;;26.40;52.00;;;;;;5035321;28;20118;-84
2022/07/19 07:23:02;;;;;;;2.28;0.70;;;26.50;51.80;;;;;;5064795;28;20052;-84
2022/07/19 07:25:29;;;;;;;1.38;0.70;;;26.60;51.70;;;;;;5043748;28;20044;-84
2022/07/19 07:27:56;;;;;;;2.55;0.70;;;26.60;51.50;;;;;;5041884;28;20484;-84
2022/07/19 07:30:23;;;;;;;2.30;0.80;;;26.70;51.40;;;;;;5038365;28;20037;-84
2022/07/19 07:32:50;;;;;;;1.63;0.80;;;26.80;51.30;;;;;;5042204;28;20040;-86
2022/07/19 07:35:17;;;;;;;3.08;0.70;;;26.90;51.20;;;;;;5006831;28;20037;-87
2022/07/19 07:37:44;;;;;;;1.25;0.50;;;27.00;51.10;;;;;;5054320;28;20036;-86
2022/07/19 07:40:12;;;;;;;1.65;0.68;;;27.20;51.10;;;;;;5042713;28;20052;-86
2022/07/19 07:42:39;;;;;;;1.50;0.73;;;27.30;51.00;;;;;;5036405;28;20046;-88
2022/07/19 07:45:09;;;;;;;1.88;0.60;;;27.40;50.80;;;;;;5042687;28;20060;-87
2022/07/19 07:47:37;;;;;;;1.17;0.52;;;27.50;50.70;;;;;;5043241;28;20041;-87
2022/07/19 07:50:06;;;;;;;0.80;0.50;;;27.50;50.50;;;;;;5079041;28;20553;-87
2022/07/19 07:52:33;;;;;;;2.20;0.70;;;27.60;50.50;;;;;;5036400;28;20044;-87
2022/07/19 07:55:01;;;;;;;1.17;0.60;;;27.70;50.40;;;;;;5057949;28;20139;-88
2022/07/19 07:57:48;;;;;;;2.13;1.10;;;27.80;50.30;;;;;;5045997;28;20507;-87
2022/07/19 08:00:15;;;;;;;1.00;0.60;;;27.90;50.20;;;;;;5067043;28;20048;-86
2022/07/19 08:02:44;;;;;;;3.22;0.80;;;28.00;50.00;;;;;;5038233;28;20102;-86
2022/07/19 08:05:12;;;;;;;1.50;0.70;;;28.10;49.80;;;;;;5051617;28;20044;-88
2022/07/19 08:07:41;;;;;;;1.13;0.50;;;28.20;49.70;;;;;;5047670;28;20072;-88
2022/07/19 08:10:15;;;;;;;2.17;0.40;;;28.30;49.60;;;;;;5045686;28;20066;-88
2022/07/19 08:12:42;;;;;;;1.30;0.40;;;28.50;49.40;;;;;;5056109;28;20060;-87
2022/07/19 08:15:10;;;;;;;2.25;0.50;;;28.60;49.20;;;;;;5042286;28;20042;-86
2022/07/19 08:17:37;;;;;;;1.83;0.55;;;28.70;49.00;;;;;;5025641;28;20048;-87
2022/07/19 08:20:05;;;;;;;1.00;0.50;;;28.80;48.70;;;;;;5048776;28;20072;-86
2022/07/19 08:22:32;;;;;;;0.95;0.30;;;28.90;48.40;;;;;;5057566;28;20044;-87
2022/07/19 08:24:59;;;;;;;1.23;0.50;;;29.10;48.10;;;;;;5023242;28;20492;-87
2022/07/19 08:27:26;;;;;;;1.40;0.38;;;29.20;47.90;;;;;;5033694;28;20051;-87
2022/07/19 08:29:53;;;;;;;0.75;0.40;;;29.30;47.60;;;;;;5043149;28;20049;-87
2022/07/19 08:32:20;;;;;;;0.73;0.35;;;29.50;47.40;;;;;;5041415;28;20110;-88
2022/07/19 08:34:48;;;;;;;0.95;0.43;;;29.60;47.10;;;;;;5038209;28;20037;-86
2022/07/19 08:37:15;;;;;;;1.33;0.60;;;29.70;46.80;;;;;;5031209;28;20056;-85
2022/07/19 08:39:42;;;;;;;0.70;0.40;;;29.90;47.20;;;;;;5056631;28;20091;-83
2022/07/19 08:42:09;;;;;;;0.90;0.50;;;30.00;46.20;;;;;;5040737;28;20044;-86
2022/07/19 08:44:41;;;;;;;0.68;0.35;;;30.10;45.90;;;;;;5024306;28;20045;-85
2022/07/19 08:47:11;;;;;;;1.33;0.50;;;30.20;45.70;;;;;;5051549;28;20136;-88
2022/07/19 08:49:43;;;;;;;1.13;0.50;;;30.30;45.50;;;;;;5039889;28;20060;-88
2022/07/19 08:52:11;;;;;;;1.02;0.38;;;30.40;45.30;;;;;;5055275;28;20048;-88
2022/07/19 08:54:39;;;;;;;1.83;0.40;;;30.60;45.20;;;;;;5049899;28;20044;-87
2022/07/19 08:59:52;;;;;;;1.50;0.40;;;30.80;44.60;;;;;;5052906;28;20072;-86
2022/07/19 09:02:19;;;;;;;0.70;0.30;;;30.90;44.20;;;;;;5044354;28;20098;-87
2022/07/19 09:05:07;;;;;;;0.82;0.40;;;31.10;44.10;;;;;;5028704;28;20048;-87
2022/07/19 09:07:36;;;;;;;2.13;0.60;;;31.20;43.70;;;;;;5039911;28;20059;-86
2022/07/19 09:10:22;;;;;;;1.50;0.40;;;31.20;43.50;;;;;;5057305;28;20104;-87
2022/07/19 09:13:16;;;;;;;1.33;0.40;;;31.40;43.30;;;;;;5053532;28;20040;-87
2022/07/19 09:15:50;;;;;;;2.58;0.40;;;31.50;43.10;;;;;;5039310;28;20033;-88
2022/07/19 09:18:21;;;;;;;0.60;0.30;;;31.60;43.00;;;;;;5036694;28;20052;-87
2022/07/19 09:20:51;;;;;;;0.70;0.22;;;31.70;42.80;;;;;;5054515;28;20036;-86
2022/07/19 09:23:19;;;;;;;1.17;0.50;;;31.80;42.70;;;;;;5056428;28;20407;-88
2022/07/19 09:25:57;;;;;;;1.23;0.50;;;31.90;42.50;;;;;;5037386;28;20045;-87
2022/07/19 09:28:26;;;;;;;1.42;0.57;;;32.00;42.30;;;;;;5049353;28;20052;-85
2022/07/19 09:30:55;;;;;;;0.88;0.40;;;32.10;42.20;;;;;;5037269;28;20052;-84
2022/07/19 09:33:29;;;;;;;0.80;0.30;;;32.20;42.20;;;;;;5034128;28;20037;-88
2022/07/19 09:36:01;;;;;;;0.90;0.50;;;32.30;41.90;;;;;;5052096;28;20137;-86
2022/07/19 09:38:35;;;;;;;0.85;0.40;;;32.40;41.90;;;;;;5036811;28;20052;-87
2022/07/19 09:41:19;;;;;;;1.52;0.68;;;32.50;41.60;;;;;;5053502;28;20041;-87
2022/07/19 09:43:56;;;;;;;1.80;0.70;;;32.60;41.50;;;;;;5054809;28;20045;-87
2022/07/19 09:46:42;;;;;;;1.90;0.85;;;32.70;41.40;;;;;;5066845;28;20052;-88
2022/07/19 09:49:13;;;;;;;1.05;0.40;;;32.80;41.30;;;;;;5057119;28;20407;-87
2022/07/19 09:51:45;;;;;;;1.10;0.30;;;32.90;41.20;;;;;;5073370;28;20048;-79
2022/07/19 09:54:26;;;;;;;1.27;0.50;;;33.00;41.00;;;;;;5074111;28;20086;-79
2022/07/19 09:56:55;;;;;;;3.08;0.52;;;33.10;41.40;;;;;;5063118;28;20496;-78
2022/07/19 09:59:24;;;;;;;0.98;0.35;;;33.10;40.70;;;;;;5039122;28;20120;-79
2022/07/19 10:01:53;;;;;;;2.50;0.60;;;33.20;40.60;;;;;;5054720;28;20543;-79
2022/07/19 10:04:23;;;;;;;1.40;0.50;;;33.30;40.50;;;;;;5052292;28;20044;-79
2022/07/19 10:06:52;;;;;;;2.47;0.50;;;33.40;40.30;;;;;;5056460;28;20301;-78
2022/07/19 10:09:21;;;;;;;1.35;0.40;;;33.50;40.10;;;;;;5032694;28;20052;-79
2022/07/19 10:11:55;;;;;;;1.50;0.47;;;33.60;40.00;;;;;;5073076;28;20036;-79
2022/07/19 10:14:22;;;;;;;1.95;0.40;;;33.60;39.80;;;;;;5039402;28;20044;-79
2022/07/19 10:17:10;;;;;;;1.15;0.50;;;33.70;39.70;;;;;;5022081;28;20098;-78
2022/07/19 10:19:45;;;;;;;1.80;0.30;;;33.80;39.70;;;;;;5051272;28;20408;-79
2022/07/19 10:22:14;;;;;;;1.23;0.40;;;33.90;39.60;;;;;;5055294;28;20048;-87
2022/07/19 10:24:52;;;;;;;1.27;0.40;;;34.00;39.60;;;;;;5024790;28;20064;-87
2022/07/19 10:27:45;;;;;;;1.60;0.45;;;34.10;39.60;;;;;;5042582;28;20144;-87
2022/07/19 10:30:12;;;;;;;1.00;0.45;;;34.20;39.40;;;;;;5045300;28;20095;-87
2022/07/19 10:32:46;;;;;;;2.58;0.50;;;34.20;39.40;;;;;;5053174;28;20119;-86
2022/07/19 10:35:25;;;;;;;1.50;0.52;;;34.30;39.30;;;;;;5063816;28;20049;-86
2022/07/19 10:38:06;;;;;;;0.75;0.38;;;34.40;39.20;;;;;;5041582;28;20099;-87
2022/07/19 10:40:47;;;;;;;1.38;0.52;;;34.50;39.30;;;;;;5038765;28;20096;-87
2022/07/19 10:43:20;;;;;;;1.27;0.40;;;34.50;38.90;;;;;;5052171;28;20044;-87
2022/07/19 10:45:56;;;;;;;1.40;0.30;;;34.50;38.80;;;;;;5052243;28;20346;-85
2022/07/19 10:48:39;;;;;;;1.00;0.40;;;34.60;38.60;;;;;;5040959;28;20051;-86
2022/07/19 10:51:10;;;;;;;1.95;0.50;;;34.70;38.20;;;;;;5039951;28;20485;-87
2022/07/19 10:53:43;;;;;;;1.30;0.40;;;34.80;38.30;;;;;;5070978;28;20089;-83
2022/07/19 10:56:30;;;;;;;0.82;0.45;;;34.80;38.80;;;;;;5048052;28;20037;-83
2022/07/19 10:59:00;;;;;;;1.10;0.40;;;35.00;38.00;;;;;;5073490;28;20060;-86
2022/07/19 11:01:30;;;;;;;1.67;0.40;;;35.10;38.00;;;;;;5056153;28;20105;-82
2022/07/19 11:04:32;;;;;;;0.68;0.40;;;35.20;37.80;;;;;;5052358;28;20045;-86
2022/07/19 11:07:18;;;;;;;1.20;0.50;;;35.30;37.50;;;;;;5052781;28;20554;-85
2022/07/19 11:09:48;;;;;;;0.90;0.30;;;35.50;37.40;;;;;;5061309;28;20045;-82
2022/07/19 11:12:27;;;;;;;1.90;0.40;;;35.50;37.20;;;;;;5072584;28;20094;-86
2022/07/19 11:14:55;;;;;;;0.73;0.40;;;35.60;37.00;;;;;;5052909;28;20045;-85
2022/07/19 11:18:03;;;;;;;0.85;0.30;;;35.70;36.90;;;;;;5054429;28;20112;-85
2022/07/19 11:20:32;;;;;;;0.98;0.40;;;35.80;36.70;;;;;;5051235;28;20045;-84
2022/07/19 11:23:00;;;;;;;0.60;0.30;;;35.80;36.80;;;;;;5028961;28;20049;-87
2022/07/19 11:25:36;;;;;;;1.38;0.50;;;35.90;36.70;;;;;;5062072;28;20051;-83
2022/07/19 11:28:03;;;;;;;1.60;0.30;;;36.00;36.60;;;;;;5048355;28;20484;-83
2022/07/19 11:30:33;;;;;;;0.88;0.40;;;36.10;36.50;;;;;;5021196;28;20036;-85
2022/07/19 11:33:04;;;;;;;0.70;0.40;;;36.10;36.10;;;;;;5077273;28;20075;-85
2022/07/19 11:35:32;;;;;;;0.90;0.32;;;36.20;36.10;;;;;;5067126;28;20084;-84
2022/07/19 11:38:00;;;;;;;1.38;0.40;;;36.30;36.00;;;;;;5049600;28;20106;-85
2022/07/19 11:40:35;;;;;;;1.58;0.40;;;36.30;35.70;;;;;;5046865;28;20135;-85
2022/07/19 11:43:07;;;;;;;1.10;0.50;;;36.40;35.60;;;;;;5074816;28;20116;-87
2022/07/19 11:45:46;;;;;;;0.75;0.30;;;36.50;35.50;;;;;;5045882;28;20048;-89
2022/07/19 11:48:25;;;;;;;1.38;0.30;;;36.60;35.30;;;;;;5053791;28;20045;-85
2022/07/19 11:51:09;;;;;;;1.02;0.30;;;36.70;35.20;;;;;;5063685;28;20097;-87
2022/07/19 11:53:39;;;;;;;1.58;0.50;;;36.80;35.00;;;;;;5040103;28;20033;-91
2022/07/19 11:56:23;;;;;;;1.02;0.40;;;37.00;35.00;;;;;;5055886;28;20037;-89
2022/07/19 11:58:51;;;;;;;2.83;0.32;;;37.20;34.80;;;;;;5052980;28;20040;-86
2022/07/19 12:01:30;;;;;;;1.60;0.40;;;37.30;34.50;;;;;;5048567;28;20102;-86
2022/07/19 12:04:15;;;;;;;1.10;0.50;;;37.60;34.30;;;;;;5049581;28;20045;-83
2022/07/19 12:06:52;;;;;;;1.70;0.60;;;37.90;34.10;;;;;;5060817;28;20071;-82
2022/07/19 12:09:27;;;;;;;0.63;0.30;;;38.20;33.90;;;;;;5069599;28;20037;-86
2022/07/19 12:11:55;;;;;;;0.50;0.25;;;38.60;33.70;;;;;;5056546;28;20443;-85
2022/07/19 12:14:34;;;;;;;1.55;0.35;;;38.80;33.50;;;;;;5035811;28;20045;-85
2022/07/19 12:17:18;;;;;;;0.50;0.30;;;39.10;33.20;;;;;;5051723;28;20493;-86
2022/07/19 12:20:07;;;;;;;1.15;0.30;;;39.50;33.10;;;;;;5015498;28;20088;-87
2022/07/19 12:22:54;;;;;;;0.60;0.30;;;39.80;33.00;;;;;;5052910;28;20117;-84
2022/07/19 12:25:37;;;;;;;0.80;0.40;;;40.10;32.80;;;;;;5034159;28;20045;-84
2022/07/19 12:28:04;;;;;;;1.60;0.55;;;40.50;33.00;;;;;;5065837;28;20041;-85
2022/07/19 12:30:31;;;;;;;1.10;0.40;;;40.60;32.20;;;;;;5021283;28;20040;-86
2022/07/19 12:33:12;;;;;;;1.52;0.30;;;40.80;32.00;;;;;;5047380;28;20494;-86
2022/07/19 12:35:47;;;;;;;0.90;0.40;;;41.00;31.70;;;;;;5040811;28;20033;-88
2022/07/19 12:38:14;;;;;;;1.10;0.38;;;41.20;31.60;;;;;;5037600;28;20045;-88
2022/07/19 12:40:43;;;;;;;0.98;0.40;;;41.50;31.60;;;;;;5020973;28;20056;-87
2022/07/19 12:43:13;;;;;;;0.80;0.40;;;41.80;31.40;;;;;;5057701;28;20086;-83
2022/07/19 12:45:46;;;;;;;1.23;0.40;;;41.80;31.00;;;;;;5034162;28;20061;-84
2022/07/19 12:48:16;;;;;;;0.65;0.30;;;41.90;30.90;;;;;;5050625;28;20052;-82
2022/07/19 12:50:59;;;;;;;1.98;0.30;;;42.00;30.90;;;;;;5040398;28;20038;-83
2022/07/19 12:53:26;;;;;;;0.63;0.38;;;42.30;30.80;;;;;;5054240;28;20139;-82
2022/07/19 12:55:53;;;;;;;0.65;0.30;;;42.50;30.60;;;;;;5054685;28;20036;-84
2022/07/19 13:01:08;;;;;;;1.67;0.40;;;42.90;30.20;;;;;;5065340;28;20086;-83
2022/07/19 13:03:35;;;;;;;0.75;0.50;;;43.10;30.20;;;;;;5055042;28;20060;-84
2022/07/19 13:06:02;;;;;;;2.47;0.52;;;43.30;30.10;;;;;;5036187;28;20464;-84
2022/07/19 13:08:29;;;;;;;1.27;0.50;;;43.60;30.00;;;;;;5019315;28;20052;-84